sensor_id;sensor_type;location;lat;lon;timestamp;temperature;humidity
47414;DHT22;33163;0.000;0.000;2022-11-25T00:01:31;19.00;68.10
47414;DHT22;33163;0.000;0.000;2022-11-25T00:04:00;19.00;68.10
47414;DHT22;33163;0.000;0.000;2022-11-25T00:06:28;19.00;68.10
47414;DHT22;33163;0.000;0.000;2022-11-25T00:08:57;19.00;68.10
47414;DHT22;33163;0.000;0.000;2022-11-25T00:11:24;19.00;68.10
47414;DHT22;33163;0.000;0.000;2022-11-25T00:13:51;18.90;68.00
47414;DHT22;33163;0.000;0.000;2022-11-25T00:16:20;19.00;68.10
47414;DHT22;33163;0.000;0.000;2022-11-25T00:18:49;19.00;68.10
47414;DHT22;33163;0.000;0.000;2022-11-25T00:21:19;18.90;68.00
47414;DHT22;33163;0.000;0.000;2022-11-25T00:23:50;18.90;68.00
47414;DHT22;33163;0.000;0.000;2022-11-25T00:26:17;18.90;68.00
47414;DHT22;33163;0.000;0.000;2022-11-25T00:28:45;18.90;68.00
47414;DHT22;33163;0.000;0.000;2022-11-25T00:31:14;18.90;68.00
47414;DHT22;33163;0.000;0.000;2022-11-25T00:33:42;18.90;68.00
47414;DHT22;33163;0.000;0.000;2022-11-25T00:36:14;18.90;68.00
47414;DHT22;33163;0.000;0.000;2022-11-25T00:38:42;18.90;68.00
47414;DHT22;33163;0.000;0.000;2022-11-25T00:41:12;18.90;68.00
47414;DHT22;33163;0.000;0.000;2022-11-25T00:43:57;18.90;68.00
47414;DHT22;33163;0.000;0.000;2022-11-25T00:46:41;18.90;68.50
47414;DHT22;33163;0.000;0.000;2022-11-25T00:49:08;18.90;68.00
47414;DHT22;33163;0.000;0.000;2022-11-25T00:51:35;18.90;68.00
47414;DHT22;33163;0.000;0.000;2022-11-25T00:54:03;18.90;68.10
47414;DHT22;33163;0.000;0.000;2022-11-25T00:56:30;18.90;68.10
47414;DHT22;33163;0.000;0.000;2022-11-25T00:58:57;18.90;68.10
47414;DHT22;33163;0.000;0.000;2022-11-25T01:01:24;18.90;68.10
47414;DHT22;33163;0.000;0.000;2022-11-25T01:03:51;18.90;68.10
47414;DHT22;33163;0.000;0.000;2022-11-25T01:06:18;18.90;68.10
47414;DHT22;33163;0.000;0.000;2022-11-25T01:08:45;18.90;68.10
47414;DHT22;33163;0.000;0.000;2022-11-25T01:11:17;18.90;68.10
47414;DHT22;33163;0.000;0.000;2022-11-25T01:13:44;18.90;68.20
47414;DHT22;33163;0.000;0.000;2022-11-25T01:16:13;18.90;68.20
47414;DHT22;33163;0.000;0.000;2022-11-25T01:18:40;18.80;68.20
47414;DHT22;33163;0.000;0.000;2022-11-25T01:21:07;18.80;68.10
47414;DHT22;33163;0.000;0.000;2022-11-25T01:23:35;18.80;68.20
47414;DHT22;33163;0.000;0.000;2022-11-25T01:26:02;18.80;68.20
47414;DHT22;33163;0.000;0.000;2022-11-25T01:28:31;18.90;68.20
47414;DHT22;33163;0.000;0.000;2022-11-25T01:31:02;18.80;68.10
47414;DHT22;33163;0.000;0.000;2022-11-25T01:33:30;18.80;68.00
47414;DHT22;33163;0.000;0.000;2022-11-25T01:35:59;18.80;68.00
47414;DHT22;33163;0.000;0.000;2022-11-25T01:38:27;18.80;68.10
47414;DHT22;33163;0.000;0.000;2022-11-25T01:40:53;18.80;68.10
47414;DHT22;33163;0.000;0.000;2022-11-25T01:43:24;18.80;68.00
47414;DHT22;33163;0.000;0.000;2022-11-25T01:45:53;18.80;68.10
47414;DHT22;33163;0.000;0.000;2022-11-25T01:48:26;18.80;68.10
47414;DHT22;33163;0.000;0.000;2022-11-25T01:50:54;18.80;68.10
47414;DHT22;33163;0.000;0.000;2022-11-25T01:53:21;18.80;68.10
47414;DHT22;33163;0.000;0.000;2022-11-25T01:55:51;18.80;68.10
47414;DHT22;33163;0.000;0.000;2022-11-25T01:58:23;18.80;68.10
47414;DHT22;33163;0.000;0.000;2022-11-25T02:00:52;18.80;68.10
47414;DHT22;33163;0.000;0.000;2022-11-25T02:03:22;18.80;68.20
47414;DHT22;33163;0.000;0.000;2022-11-25T02:05:53;18.80;68.20
47414;DHT22;33163;0.000;0.000;2022-11-25T02:08:22;18.80;68.20
47414;DHT22;33163;0.000;0.000;2022-11-25T02:10:50;18.80;68.20
47414;DHT22;33163;0.000;0.000;2022-11-25T02:13:18;18.80;68.30
47414;DHT22;33163;0.000;0.000;2022-11-25T02:15:46;18.80;68.30
47414;DHT22;33163;0.000;0.000;2022-11-25T02:18:14;18.80;68.20
47414;DHT22;33163;0.000;0.000;2022-11-25T02:20:41;18.70;68.20
47414;DHT22;33163;0.000;0.000;2022-11-25T02:23:14;18.80;68.30
47414;DHT22;33163;0.000;0.000;2022-11-25T02:25:45;18.80;68.20
47414;DHT22;33163;0.000;0.000;2022-11-25T02:28:14;18.70;68.20
47414;DHT22;33163;0.000;0.000;2022-11-25T02:30:42;18.70;68.10
47414;DHT22;33163;0.000;0.000;2022-11-25T02:33:10;18.80;68.20
47414;DHT22;33163;0.000;0.000;2022-11-25T02:35:38;18.70;68.20
47414;DHT22;33163;0.000;0.000;2022-11-25T02:38:08;18.70;68.20
47414;DHT22;33163;0.000;0.000;2022-11-25T02:40:41;18.70;68.20
47414;DHT22;33163;0.000;0.000;2022-11-25T02:43:10;18.70;68.20
47414;DHT22;33163;0.000;0.000;2022-11-25T02:45:55;18.70;68.20
47414;DHT22;33163;0.000;0.000;2022-11-25T02:48:23;18.70;68.20
47414;DHT22;33163;0.000;0.000;2022-11-25T02:50:50;18.70;68.20
47414;DHT22;33163;0.000;0.000;2022-11-25T02:53:17;18.70;68.20
47414;DHT22;33163;0.000;0.000;2022-11-25T02:55:44;18.70;68.20
47414;DHT22;33163;0.000;0.000;2022-11-25T02:58:13;18.70;68.20
47414;DHT22;33163;0.000;0.000;2022-11-25T03:00:40;18.70;68.20
47414;DHT22;33163;0.000;0.000;2022-11-25T03:03:07;18.70;68.20
47414;DHT22;33163;0.000;0.000;2022-11-25T03:05:34;18.70;68.20
47414;DHT22;33163;0.000;0.000;2022-11-25T03:08:02;18.70;68.20
47414;DHT22;33163;0.000;0.000;2022-11-25T03:10:29;18.70;68.20
47414;DHT22;33163;0.000;0.000;2022-11-25T03:12:56;18.70;68.20
47414;DHT22;33163;0.000;0.000;2022-11-25T03:15:24;18.70;68.30
47414;DHT22;33163;0.000;0.000;2022-11-25T03:17:51;18.70;68.20
47414;DHT22;33163;0.000;0.000;2022-11-25T03:20:19;18.70;68.20
47414;DHT22;33163;0.000;0.000;2022-11-25T03:22:46;18.70;68.20
47414;DHT22;33163;0.000;0.000;2022-11-25T03:25:14;18.70;68.20
47414;DHT22;33163;0.000;0.000;2022-11-25T03:27:41;18.70;68.20
47414;DHT22;33163;0.000;0.000;2022-11-25T03:30:11;18.60;68.20
47414;DHT22;33163;0.000;0.000;2022-11-25T03:32:39;18.70;68.20
47414;DHT22;33163;0.000;0.000;2022-11-25T03:35:07;18.60;68.10
47414;DHT22;33163;0.000;0.000;2022-11-25T03:37:35;18.60;68.20
47414;DHT22;33163;0.000;0.000;2022-11-25T03:40:02;18.60;68.10
47414;DHT22;33163;0.000;0.000;2022-11-25T03:42:29;18.60;68.10
47414;DHT22;33163;0.000;0.000;2022-11-25T03:44:56;18.60;68.00
47414;DHT22;33163;0.000;0.000;2022-11-25T03:47:23;18.70;68.10
47414;DHT22;33163;0.000;0.000;2022-11-25T03:49:51;18.60;68.00
47414;DHT22;33163;0.000;0.000;2022-11-25T03:52:18;18.60;68.00
47414;DHT22;33163;0.000;0.000;2022-11-25T03:54:45;18.60;67.90
47414;DHT22;33163;0.000;0.000;2022-11-25T03:57:12;18.60;67.90
47414;DHT22;33163;0.000;0.000;2022-11-25T03:59:38;18.60;68.70
47414;DHT22;33163;0.000;0.000;2022-11-25T04:02:05;18.60;68.10
47414;DHT22;33163;0.000;0.000;2022-11-25T04:04:32;18.60;67.90
47414;DHT22;33163;0.000;0.000;2022-11-25T04:07:00;18.70;68.00
47414;DHT22;33163;0.000;0.000;2022-11-25T04:09:27;18.60;68.00
47414;DHT22;33163;0.000;0.000;2022-11-25T04:11:54;18.60;68.10
47414;DHT22;33163;0.000;0.000;2022-11-25T04:14:38;18.60;67.90
47414;DHT22;33163;0.000;0.000;2022-11-25T04:17:05;18.60;68.00
47414;DHT22;33163;0.000;0.000;2022-11-25T04:19:31;18.60;67.90
47414;DHT22;33163;0.000;0.000;2022-11-25T04:21:59;18.60;67.90
47414;DHT22;33163;0.000;0.000;2022-11-25T04:24:27;18.60;67.90
47414;DHT22;33163;0.000;0.000;2022-11-25T04:26:54;18.60;67.90
47414;DHT22;33163;0.000;0.000;2022-11-25T04:29:20;18.60;67.90
47414;DHT22;33163;0.000;0.000;2022-11-25T04:31:47;18.60;67.90
47414;DHT22;33163;0.000;0.000;2022-11-25T04:34:14;18.60;67.90
47414;DHT22;33163;0.000;0.000;2022-11-25T04:36:41;18.60;67.90
47414;DHT22;33163;0.000;0.000;2022-11-25T04:39:09;18.60;67.90
47414;DHT22;33163;0.000;0.000;2022-11-25T04:41:35;18.60;67.90
47414;DHT22;33163;0.000;0.000;2022-11-25T04:44:02;18.60;68.00
47414;DHT22;33163;0.000;0.000;2022-11-25T04:46:33;18.50;67.90
47414;DHT22;33163;0.000;0.000;2022-11-25T04:49:01;18.60;67.90
47414;DHT22;33163;0.000;0.000;2022-11-25T04:51:28;18.50;67.80
47414;DHT22;33163;0.000;0.000;2022-11-25T04:53:54;18.50;67.90
47414;DHT22;33163;0.000;0.000;2022-11-25T04:56:23;18.50;67.80
47414;DHT22;33163;0.000;0.000;2022-11-25T04:58:50;18.50;67.80
47414;DHT22;33163;0.000;0.000;2022-11-25T05:01:34;18.50;67.80
47414;DHT22;33163;0.000;0.000;2022-11-25T05:04:00;18.50;67.90
47414;DHT22;33163;0.000;0.000;2022-11-25T05:06:27;18.50;67.80
47414;DHT22;33163;0.000;0.000;2022-11-25T05:08:54;18.50;67.80
47414;DHT22;33163;0.000;0.000;2022-11-25T05:11:22;18.50;67.90
47414;DHT22;33163;0.000;0.000;2022-11-25T05:13:49;18.50;67.80
47414;DHT22;33163;0.000;0.000;2022-11-25T05:16:15;18.50;67.80
47414;DHT22;33163;0.000;0.000;2022-11-25T05:18:42;18.50;67.90
47414;DHT22;33163;0.000;0.000;2022-11-25T05:21:09;18.50;67.80
47414;DHT22;33163;0.000;0.000;2022-11-25T05:23:35;18.50;67.80
47414;DHT22;33163;0.000;0.000;2022-11-25T05:26:03;18.50;67.90
47414;DHT22;33163;0.000;0.000;2022-11-25T05:28:32;18.50;67.80
47414;DHT22;33163;0.000;0.000;2022-11-25T05:30:58;18.50;67.80
47414;DHT22;33163;0.000;0.000;2022-11-25T05:33:25;18.50;67.80
47414;DHT22;33163;0.000;0.000;2022-11-25T05:35:54;18.50;67.80
47414;DHT22;33163;0.000;0.000;2022-11-25T05:38:21;18.50;67.70
47414;DHT22;33163;0.000;0.000;2022-11-25T05:40:47;18.50;67.70
47414;DHT22;33163;0.000;0.000;2022-11-25T05:43:14;18.50;67.80
47414;DHT22;33163;0.000;0.000;2022-11-25T05:45:42;18.50;67.80
47414;DHT22;33163;0.000;0.000;2022-11-25T05:48:09;18.40;67.70
47414;DHT22;33163;0.000;0.000;2022-11-25T05:50:36;18.40;67.70
47414;DHT22;33163;0.000;0.000;2022-11-25T05:53:03;18.50;67.70
47414;DHT22;33163;0.000;0.000;2022-11-25T05:55:30;18.40;67.70
47414;DHT22;33163;0.000;0.000;2022-11-25T05:57:57;18.50;67.70
47414;DHT22;33163;0.000;0.000;2022-11-25T06:00:24;18.40;67.60
47414;DHT22;33163;0.000;0.000;2022-11-25T06:02:52;18.40;67.50
47414;DHT22;33163;0.000;0.000;2022-11-25T06:05:19;18.40;67.60
47414;DHT22;33163;0.000;0.000;2022-11-25T06:07:46;18.40;67.70
47414;DHT22;33163;0.000;0.000;2022-11-25T06:10:13;18.40;67.60
47414;DHT22;33163;0.000;0.000;2022-11-25T06:12:40;18.40;67.50
47414;DHT22;33163;0.000;0.000;2022-11-25T06:15:08;18.40;67.60
47414;DHT22;33163;0.000;0.000;2022-11-25T06:17:34;18.40;67.60
47414;DHT22;33163;0.000;0.000;2022-11-25T06:20:04;18.40;67.70
47414;DHT22;33163;0.000;0.000;2022-11-25T06:22:31;18.40;67.60
47414;DHT22;33163;0.000;0.000;2022-11-25T06:24:57;18.40;67.60
47414;DHT22;33163;0.000;0.000;2022-11-25T06:27:24;18.40;67.70
47414;DHT22;33163;0.000;0.000;2022-11-25T06:29:51;18.40;67.70
47414;DHT22;33163;0.000;0.000;2022-11-25T06:32:18;18.40;67.70
47414;DHT22;33163;0.000;0.000;2022-11-25T06:34:44;18.40;67.70
47414;DHT22;33163;0.000;0.000;2022-11-25T06:37:12;18.40;67.80
47414;DHT22;33163;0.000;0.000;2022-11-25T06:39:39;18.40;68.30
47414;DHT22;33163;0.000;0.000;2022-11-25T06:42:06;18.40;67.70
47414;DHT22;33163;0.000;0.000;2022-11-25T06:44:33;18.40;67.70
47414;DHT22;33163;0.000;0.000;2022-11-25T06:46:59;18.40;67.60
47414;DHT22;33163;0.000;0.000;2022-11-25T06:49:26;18.40;67.70
47414;DHT22;33163;0.000;0.000;2022-11-25T06:51:54;18.40;68.00
47414;DHT22;33163;0.000;0.000;2022-11-25T06:54:22;18.40;68.20
47414;DHT22;33163;0.000;0.000;2022-11-25T06:56:48;18.40;68.90
47414;DHT22;33163;0.000;0.000;2022-11-25T06:59:18;18.40;68.40
47414;DHT22;33163;0.000;0.000;2022-11-25T07:01:45;18.40;68.80
47414;DHT22;33163;0.000;0.000;2022-11-25T07:04:12;18.40;68.70
47414;DHT22;33163;0.000;0.000;2022-11-25T07:06:39;18.40;68.60
47414;DHT22;33163;0.000;0.000;2022-11-25T07:09:06;18.30;68.70
47414;DHT22;33163;0.000;0.000;2022-11-25T07:11:36;18.30;68.40
47414;DHT22;33163;0.000;0.000;2022-11-25T07:14:06;18.40;68.60
47414;DHT22;33163;0.000;0.000;2022-11-25T07:16:33;18.40;68.50
47414;DHT22;33163;0.000;0.000;2022-11-25T07:19:00;18.30;68.50
47414;DHT22;33163;0.000;0.000;2022-11-25T07:21:28;18.40;68.50
47414;DHT22;33163;0.000;0.000;2022-11-25T07:23:57;18.30;68.30
47414;DHT22;33163;0.000;0.000;2022-11-25T07:26:26;18.30;68.30
47414;DHT22;33163;0.000;0.000;2022-11-25T07:28:57;18.30;68.30
47414;DHT22;33163;0.000;0.000;2022-11-25T07:31:26;18.30;68.20
47414;DHT22;33163;0.000;0.000;2022-11-25T07:33:56;18.30;68.20
47414;DHT22;33163;0.000;0.000;2022-11-25T07:36:23;18.30;68.30
47414;DHT22;33163;0.000;0.000;2022-11-25T07:38:50;18.30;68.20
47414;DHT22;33163;0.000;0.000;2022-11-25T07:41:20;18.30;68.10
47414;DHT22;33163;0.000;0.000;2022-11-25T07:43:49;18.30;68.00
47414;DHT22;33163;0.000;0.000;2022-11-25T07:46:19;18.30;67.80
47414;DHT22;33163;0.000;0.000;2022-11-25T07:48:47;18.30;67.60
47414;DHT22;33163;0.000;0.000;2022-11-25T07:51:15;18.30;68.20
47414;DHT22;33163;0.000;0.000;2022-11-25T07:53:43;18.30;68.10
47414;DHT22;33163;0.000;0.000;2022-11-25T07:56:10;18.30;68.30
47414;DHT22;33163;0.000;0.000;2022-11-25T07:58:37;18.30;68.50
47414;DHT22;33163;0.000;0.000;2022-11-25T08:01:04;18.30;68.00
47414;DHT22;33163;0.000;0.000;2022-11-25T08:03:33;18.30;68.40
47414;DHT22;33163;0.000;0.000;2022-11-25T08:06:00;18.30;68.50
47414;DHT22;33163;0.000;0.000;2022-11-25T08:08:27;18.30;68.70
47414;DHT22;33163;0.000;0.000;2022-11-25T08:10:54;18.30;68.40
47414;DHT22;33163;0.000;0.000;2022-11-25T08:13:21;18.30;68.60
47414;DHT22;33163;0.000;0.000;2022-11-25T08:15:48;18.30;68.60
47414;DHT22;33163;0.000;0.000;2022-11-25T08:18:15;18.30;68.70
47414;DHT22;33163;0.000;0.000;2022-11-25T08:20:43;18.30;68.60
47414;DHT22;33163;0.000;0.000;2022-11-25T08:23:10;18.30;68.70
47414;DHT22;33163;0.000;0.000;2022-11-25T08:25:38;18.30;68.50
47414;DHT22;33163;0.000;0.000;2022-11-25T08:28:06;18.30;68.70
47414;DHT22;33163;0.000;0.000;2022-11-25T08:30:32;18.30;68.50
47414;DHT22;33163;0.000;0.000;2022-11-25T08:33:00;18.30;68.50
47414;DHT22;33163;0.000;0.000;2022-11-25T08:35:29;18.30;68.30
47414;DHT22;33163;0.000;0.000;2022-11-25T08:37:57;18.30;68.30
47414;DHT22;33163;0.000;0.000;2022-11-25T08:40:24;18.30;68.30
47414;DHT22;33163;0.000;0.000;2022-11-25T08:42:51;18.30;68.20
47414;DHT22;33163;0.000;0.000;2022-11-25T08:45:18;18.30;68.10
47414;DHT22;33163;0.000;0.000;2022-11-25T08:47:44;18.30;68.20
47414;DHT22;33163;0.000;0.000;2022-11-25T08:50:13;18.30;68.20
47414;DHT22;33163;0.000;0.000;2022-11-25T08:52:40;18.30;68.20
47414;DHT22;33163;0.000;0.000;2022-11-25T08:55:09;18.20;67.90
47414;DHT22;33163;0.000;0.000;2022-11-25T08:57:36;18.20;67.90
47414;DHT22;33163;0.000;0.000;2022-11-25T09:00:05;18.30;67.90
47414;DHT22;33163;0.000;0.000;2022-11-25T09:02:32;18.30;67.70
47414;DHT22;33163;0.000;0.000;2022-11-25T09:04:59;18.30;67.80
47414;DHT22;33163;0.000;0.000;2022-11-25T09:07:26;18.30;67.70
47414;DHT22;33163;0.000;0.000;2022-11-25T09:09:53;18.30;67.60
47414;DHT22;33163;0.000;0.000;2022-11-25T09:12:21;18.30;67.60
47414;DHT22;33163;0.000;0.000;2022-11-25T09:14:48;18.40;67.60
47414;DHT22;33163;0.000;0.000;2022-11-25T09:17:14;18.40;67.70
47414;DHT22;33163;0.000;0.000;2022-11-25T09:19:41;18.40;67.70
47414;DHT22;33163;0.000;0.000;2022-11-25T09:22:08;18.40;67.80
47414;DHT22;33163;0.000;0.000;2022-11-25T09:24:35;18.40;67.70
47414;DHT22;33163;0.000;0.000;2022-11-25T09:27:02;18.50;67.70
47414;DHT22;33163;0.000;0.000;2022-11-25T09:29:30;18.50;67.80
47414;DHT22;33163;0.000;0.000;2022-11-25T09:31:57;18.50;67.80
47414;DHT22;33163;0.000;0.000;2022-11-25T09:34:23;18.50;67.80
47414;DHT22;33163;0.000;0.000;2022-11-25T09:36:50;18.60;67.90
47414;DHT22;33163;0.000;0.000;2022-11-25T09:39:17;18.60;67.90
47414;DHT22;33163;0.000;0.000;2022-11-25T09:41:58;18.60;68.00
47414;DHT22;33163;0.000;0.000;2022-11-25T09:45:00;18.60;68.10
47414;DHT22;33163;0.000;0.000;2022-11-25T09:47:52;18.60;68.10
47414;DHT22;33163;0.000;0.000;2022-11-25T09:50:30;18.70;68.00
47414;DHT22;33163;0.000;0.000;2022-11-25T09:53:05;18.70;68.00
47414;DHT22;33163;0.000;0.000;2022-11-25T09:55:41;18.70;68.00
47414;DHT22;33163;0.000;0.000;2022-11-25T09:58:18;18.70;67.90
47414;DHT22;33163;0.000;0.000;2022-11-25T10:00:49;18.70;68.00
47414;DHT22;33163;0.000;0.000;2022-11-25T10:03:26;18.80;68.00
47414;DHT22;33163;0.000;0.000;2022-11-25T10:06:00;18.80;67.90
47414;DHT22;33163;0.000;0.000;2022-11-25T10:08:30;18.80;67.90
47414;DHT22;33163;0.000;0.000;2022-11-25T10:11:02;18.90;67.80
47414;DHT22;33163;0.000;0.000;2022-11-25T10:13:43;18.80;67.70
47414;DHT22;33163;0.000;0.000;2022-11-25T10:16:23;18.90;67.80
47414;DHT22;33163;0.000;0.000;2022-11-25T10:18:57;18.90;67.80
47414;DHT22;33163;0.000;0.000;2022-11-25T10:21:25;18.90;67.80
47414;DHT22;33163;0.000;0.000;2022-11-25T10:23:52;18.90;67.70
47414;DHT22;33163;0.000;0.000;2022-11-25T10:26:22;18.90;67.70
47414;DHT22;33163;0.000;0.000;2022-11-25T10:28:54;18.90;67.70
47414;DHT22;33163;0.000;0.000;2022-11-25T10:31:28;18.90;67.70
47414;DHT22;33163;0.000;0.000;2022-11-25T10:33:57;19.00;67.60
47414;DHT22;33163;0.000;0.000;2022-11-25T10:36:27;19.00;67.60
47414;DHT22;33163;0.000;0.000;2022-11-25T10:38:58;19.00;67.60
47414;DHT22;33163;0.000;0.000;2022-11-25T10:41:28;19.10;67.70
47414;DHT22;33163;0.000;0.000;2022-11-25T10:43:56;19.10;67.70
47414;DHT22;33163;0.000;0.000;2022-11-25T10:46:32;19.10;67.60
47414;DHT22;33163;0.000;0.000;2022-11-25T10:49:10;19.10;67.80
47414;DHT22;33163;0.000;0.000;2022-11-25T10:51:43;19.10;67.70
47414;DHT22;33163;0.000;0.000;2022-11-25T10:54:14;19.10;67.80
47414;DHT22;33163;0.000;0.000;2022-11-25T10:56:59;19.20;67.70
47414;DHT22;33163;0.000;0.000;2022-11-25T10:59:28;19.20;67.80
47414;DHT22;33163;0.000;0.000;2022-11-25T11:02:24;19.20;67.80
47414;DHT22;33163;0.000;0.000;2022-11-25T11:04:57;19.20;67.90
47414;DHT22;33163;0.000;0.000;2022-11-25T11:07:25;19.10;68.40
47414;DHT22;33163;0.000;0.000;2022-11-25T11:09:52;19.10;67.80
47414;DHT22;33163;0.000;0.000;2022-11-25T11:12:22;19.10;67.80
47414;DHT22;33163;0.000;0.000;2022-11-25T11:14:52;19.20;67.80
47414;DHT22;33163;0.000;0.000;2022-11-25T11:17:29;19.20;67.80
47414;DHT22;33163;0.000;0.000;2022-11-25T11:20:12;19.20;67.80
47414;DHT22;33163;0.000;0.000;2022-11-25T11:22:46;19.20;67.80
47414;DHT22;33163;0.000;0.000;2022-11-25T11:25:27;19.20;67.90
47414;DHT22;33163;0.000;0.000;2022-11-25T11:27:55;19.20;67.90
47414;DHT22;33163;0.000;0.000;2022-11-25T11:30:27;19.10;67.90
47414;DHT22;33163;0.000;0.000;2022-11-25T11:32:58;19.10;67.90
47414;DHT22;33163;0.000;0.000;2022-11-25T11:35:40;19.10;67.80
47414;DHT22;33163;0.000;0.000;2022-11-25T11:38:24;19.00;67.70
47414;DHT22;33163;0.000;0.000;2022-11-25T11:40:54;19.00;67.80
47414;DHT22;33163;0.000;0.000;2022-11-25T11:43:50;19.00;67.80
47414;DHT22;33163;0.000;0.000;2022-11-25T11:46:29;19.10;67.70
47414;DHT22;33163;0.000;0.000;2022-11-25T11:49:08;19.20;67.70
47414;DHT22;33163;0.000;0.000;2022-11-25T11:51:44;19.20;68.30
47414;DHT22;33163;0.000;0.000;2022-11-25T11:54:16;19.20;67.60
47414;DHT22;33163;0.000;0.000;2022-11-25T11:56:48;19.20;67.70
47414;DHT22;33163;0.000;0.000;2022-11-25T11:59:47;19.20;67.50
47414;DHT22;33163;0.000;0.000;2022-11-25T12:02:30;19.20;67.60
47414;DHT22;33163;0.000;0.000;2022-11-25T12:05:11;19.20;67.60
47414;DHT22;33163;0.000;0.000;2022-11-25T12:07:43;19.20;68.30
47414;DHT22;33163;0.000;0.000;2022-11-25T12:10:18;19.10;68.10
47414;DHT22;33163;0.000;0.000;2022-11-25T12:12:50;19.10;67.50
47414;DHT22;33163;0.000;0.000;2022-11-25T12:15:21;19.10;67.50
47414;DHT22;33163;0.000;0.000;2022-11-25T12:17:53;19.10;67.50
47414;DHT22;33163;0.000;0.000;2022-11-25T12:20:34;19.10;67.50
47414;DHT22;33163;0.000;0.000;2022-11-25T12:23:06;19.10;67.50
47414;DHT22;33163;0.000;0.000;2022-11-25T12:25:37;19.10;67.50
47414;DHT22;33163;0.000;0.000;2022-11-25T12:28:07;19.10;67.50
47414;DHT22;33163;0.000;0.000;2022-11-25T12:30:39;19.10;67.60
47414;DHT22;33163;0.000;0.000;2022-11-25T12:33:11;19.00;67.60
47414;DHT22;33163;0.000;0.000;2022-11-25T12:35:48;19.00;67.60
47414;DHT22;33163;0.000;0.000;2022-11-25T12:38:25;19.00;67.70
47414;DHT22;33163;0.000;0.000;2022-11-25T12:40:59;19.00;67.90
47414;DHT22;33163;0.000;0.000;2022-11-25T12:43:32;19.00;68.00
47414;DHT22;33163;0.000;0.000;2022-11-25T12:46:06;18.90;68.10
47414;DHT22;33163;0.000;0.000;2022-11-25T12:48:39;19.00;68.00
47414;DHT22;33163;0.000;0.000;2022-11-25T12:51:15;19.00;67.80
47414;DHT22;33163;0.000;0.000;2022-11-25T12:53:49;19.10;67.60
47414;DHT22;33163;0.000;0.000;2022-11-25T12:56:23;19.10;67.50
47414;DHT22;33163;0.000;0.000;2022-11-25T12:59:16;19.10;67.50
47414;DHT22;33163;0.000;0.000;2022-11-25T13:01:59;19.10;67.60
47414;DHT22;33163;0.000;0.000;2022-11-25T13:05:02;19.10;67.70
47414;DHT22;33163;0.000;0.000;2022-11-25T13:07:41;19.10;67.70
47414;DHT22;33163;0.000;0.000;2022-11-25T13:10:35;19.00;67.80
47414;DHT22;33163;0.000;0.000;2022-11-25T13:13:16;19.00;67.90
47414;DHT22;33163;0.000;0.000;2022-11-25T13:15:47;19.00;68.00
47414;DHT22;33163;0.000;0.000;2022-11-25T13:18:19;19.00;68.10
47414;DHT22;33163;0.000;0.000;2022-11-25T13:20:49;18.90;68.30
47414;DHT22;33163;0.000;0.000;2022-11-25T13:23:25;18.90;68.30
47414;DHT22;33163;0.000;0.000;2022-11-25T13:29:00;18.90;68.40
47414;DHT22;33163;0.000;0.000;2022-11-25T13:31:30;18.90;68.50
47414;DHT22;33163;0.000;0.000;2022-11-25T13:34:06;18.90;68.40
47414;DHT22;33163;0.000;0.000;2022-11-25T13:36:44;18.90;68.40
47414;DHT22;33163;0.000;0.000;2022-11-25T13:39:17;18.90;68.40
47414;DHT22;33163;0.000;0.000;2022-11-25T13:41:46;18.90;68.30
47414;DHT22;33163;0.000;0.000;2022-11-25T13:44:25;18.90;68.20
47414;DHT22;33163;0.000;0.000;2022-11-25T13:46:56;18.90;68.00
47414;DHT22;33163;0.000;0.000;2022-11-25T13:49:31;18.90;68.00
47414;DHT22;33163;0.000;0.000;2022-11-25T13:52:02;18.90;68.00
47414;DHT22;33163;0.000;0.000;2022-11-25T13:54:35;18.90;68.00
47414;DHT22;33163;0.000;0.000;2022-11-25T13:57:23;18.90;68.00
47414;DHT22;33163;0.000;0.000;2022-11-25T13:59:53;18.90;68.00
47414;DHT22;33163;0.000;0.000;2022-11-25T14:02:32;18.90;67.90
47414;DHT22;33163;0.000;0.000;2022-11-25T14:05:05;18.90;67.90
47414;DHT22;33163;0.000;0.000;2022-11-25T14:07:40;18.80;67.90
47414;DHT22;33163;0.000;0.000;2022-11-25T14:10:33;18.90;68.10
47414;DHT22;33163;0.000;0.000;2022-11-25T14:13:15;18.90;68.00
47414;DHT22;33163;0.000;0.000;2022-11-25T14:15:57;18.90;68.00
47414;DHT22;33163;0.000;0.000;2022-11-25T14:18:48;18.90;67.90
47414;DHT22;33163;0.000;0.000;2022-11-25T14:21:32;18.90;67.90
47414;DHT22;33163;0.000;0.000;2022-11-25T14:24:18;18.80;67.70
47414;DHT22;33163;0.000;0.000;2022-11-25T14:26:52;18.90;67.80
47414;DHT22;33163;0.000;0.000;2022-11-25T14:29:21;18.90;67.80
47414;DHT22;33163;0.000;0.000;2022-11-25T14:31:52;18.90;67.70
47414;DHT22;33163;0.000;0.000;2022-11-25T14:34:25;18.90;67.80
47414;DHT22;33163;0.000;0.000;2022-11-25T14:36:55;18.80;67.80
47414;DHT22;33163;0.000;0.000;2022-11-25T14:39:29;18.80;67.90
47414;DHT22;33163;0.000;0.000;2022-11-25T14:42:02;18.80;68.00
47414;DHT22;33163;0.000;0.000;2022-11-25T14:44:35;18.80;68.00
47414;DHT22;33163;0.000;0.000;2022-11-25T14:47:04;18.80;68.00
47414;DHT22;33163;0.000;0.000;2022-11-25T14:49:47;18.80;68.00
47414;DHT22;33163;0.000;0.000;2022-11-25T14:52:17;18.80;67.80
47414;DHT22;33163;0.000;0.000;2022-11-25T14:54:45;18.70;67.80
47414;DHT22;33163;0.000;0.000;2022-11-25T14:57:18;18.70;67.80
47414;DHT22;33163;0.000;0.000;2022-11-25T14:59:45;18.70;67.70
47414;DHT22;33163;0.000;0.000;2022-11-25T15:02:23;18.70;67.70
47414;DHT22;33163;0.000;0.000;2022-11-25T15:04:50;18.70;67.70
47414;DHT22;33163;0.000;0.000;2022-11-25T15:07:19;18.70;67.80
47414;DHT22;33163;0.000;0.000;2022-11-25T15:09:47;18.70;67.80
47414;DHT22;33163;0.000;0.000;2022-11-25T15:12:17;18.70;67.80
47414;DHT22;33163;0.000;0.000;2022-11-25T15:14:49;18.70;67.80
47414;DHT22;33163;0.000;0.000;2022-11-25T15:17:23;18.70;67.80
47414;DHT22;33163;0.000;0.000;2022-11-25T15:19:51;18.60;67.70
47414;DHT22;33163;0.000;0.000;2022-11-25T15:22:20;18.70;67.80
47414;DHT22;33163;0.000;0.000;2022-11-25T15:24:48;18.60;67.70
47414;DHT22;33163;0.000;0.000;2022-11-25T15:27:18;18.60;67.80
47414;DHT22;33163;0.000;0.000;2022-11-25T15:29:47;18.60;67.80
47414;DHT22;33163;0.000;0.000;2022-11-25T15:32:17;18.60;67.80
47414;DHT22;33163;0.000;0.000;2022-11-25T15:34:45;18.70;67.80
47414;DHT22;33163;0.000;0.000;2022-11-25T15:37:12;18.60;67.60
47414;DHT22;33163;0.000;0.000;2022-11-25T15:39:39;18.60;67.80
47414;DHT22;33163;0.000;0.000;2022-11-25T15:42:14;18.60;67.70
47414;DHT22;33163;0.000;0.000;2022-11-25T15:44:48;18.60;67.80
47414;DHT22;33163;0.000;0.000;2022-11-25T15:47:20;18.60;67.80
47414;DHT22;33163;0.000;0.000;2022-11-25T15:49:57;18.60;67.80
47414;DHT22;33163;0.000;0.000;2022-11-25T15:52:26;18.60;67.80
47414;DHT22;33163;0.000;0.000;2022-11-25T15:54:58;18.60;67.90
47414;DHT22;33163;0.000;0.000;2022-11-25T15:57:27;18.60;67.80
47414;DHT22;33163;0.000;0.000;2022-11-25T16:00:13;18.60;67.80
47414;DHT22;33163;0.000;0.000;2022-11-25T16:02:50;18.60;67.70
47414;DHT22;33163;0.000;0.000;2022-11-25T16:08:24;18.60;68.00
47414;DHT22;33163;0.000;0.000;2022-11-25T16:10:55;18.60;67.50
47414;DHT22;33163;0.000;0.000;2022-11-25T16:13:30;18.80;67.20